Time;durP1;ratioP1;P1;durP2;ratioP2;P2;SDS_P1;SDS_P2;PMS_P1;PMS_P2;Temp;Humidity;BMP_temperature;BMP_pressure;BME280_temperature;BME280_humidity;BME280_pressure;Samples;Min_cycle;Max_cycle;Signal;HPM_P1;HPM_P2
2024/03/05 00:00:38;;;;;;;29.15;17.08;;;;;;;14.50;50.31;101018.03;5023660;27;99043;-72
2024/03/05 00:03:05;;;;;;;33.40;18.08;;;;;;;14.64;49.49;101018.22;5027590;27;96779;-75
2024/03/05 00:05:31;;;;;;;31.92;17.55;;;;;;;14.64;49.71;101022.66;5026349;27;98144;-74
2024/03/05 00:07:57;;;;;;;39.90;18.85;;;;;;;14.50;48.96;101017.19;5023610;27;99525;-73
2024/03/05 00:10:24;;;;;;;33.40;18.38;;;;;;;14.17;48.94;101019.56;5019134;27;98973;-73
2024/03/05 00:12:50;;;;;;;31.20;17.67;;;;;;;14.21;48.68;101015.84;5023685;27;98999;-73
2024/03/05 00:15:18;;;;;;;27.48;16.05;;;;;;;14.08;49.50;101027.97;5025476;27;96944;-73
2024/03/05 00:17:45;;;;;;;27.40;16.13;;;;;;;14.34;48.55;101014.34;5021982;27;97642;-73
2024/03/05 00:20:18;;;;;;;32.08;16.77;;;;;;;14.36;48.12;101023.09;5024361;27;98777;-73
2024/03/05 00:22:45;;;;;;;28.52;16.45;;;;;;;14.25;48.26;101018.25;5026378;27;96821;-74
2024/03/05 00:25:12;;;;;;;30.27;16.52;;;;;;;14.46;47.72;101024.41;5026061;27;97402;-74
2024/03/05 00:27:38;;;;;;;30.10;15.88;;;;;;;14.43;47.15;101026.38;5028358;27;98877;-73
2024/03/05 00:30:08;;;;;;;31.17;16.73;;;;;;;14.30;47.47;101028.72;5026035;27;97512;-73
2024/03/05 00:32:37;;;;;;;30.02;15.98;;;;;;;14.15;47.43;101032.06;5030426;27;96759;-74
2024/03/05 00:35:04;;;;;;;27.48;17.02;;;;;;;14.16;47.17;101032.00;5028568;27;98435;-74
2024/03/05 00:37:31;;;;;;;35.85;16.10;;;;;;;14.16;47.38;101034.66;5025562;27;98176;-74
2024/03/05 00:39:58;;;;;;;30.20;16.98;;;;;;;14.15;47.08;101034.72;5026503;27;99325;-73
2024/03/05 00:42:24;;;;;;;31.92;17.70;;;;;;;14.14;46.53;101036.50;5027433;27;97852;-73
2024/03/05 00:44:51;;;;;;;36.20;16.75;;;;;;;14.14;46.30;101046.28;5027165;27;97371;-73
2024/03/05 00:47:18;;;;;;;34.35;16.30;;;;;;;14.05;46.63;101046.69;5021493;27;99178;-73
2024/03/05 00:49:46;;;;;;;34.50;16.25;;;;;;;13.94;46.11;101041.84;5022105;27;99270;-73
2024/03/05 00:52:13;;;;;;;31.40;15.88;;;;;;;14.01;46.12;101039.78;5024734;27;96799;-73
2024/03/05 00:54:40;;;;;;;29.40;14.63;;;;;;;13.85;45.87;101040.47;5019581;27;97225;-74
2024/03/05 00:57:06;;;;;;;29.20;15.50;;;;;;;13.78;45.93;101048.78;5014300;27;99992;-74
2024/03/05 00:59:33;;;;;;;24.13;14.93;;;;;;;13.92;46.58;101043.72;5023252;27;97561;-74
2024/03/05 01:02:01;;;;;;;24.10;15.00;;;;;;;14.07;46.14;101052.78;5026636;27;96851;-75
2024/03/05 01:04:28;;;;;;;32.08;15.70;;;;;;;14.00;45.11;101046.03;5025186;27;96967;-74
2024/03/05 01:06:55;;;;;;;24.23;15.50;;;;;;;13.80;45.29;101049.56;5025711;27;99228;-74
2024/03/05 01:09:24;;;;;;;31.60;16.25;;;;;;;13.81;45.34;101041.53;5024604;27;99758;-73
2024/03/05 01:11:52;;;;;;;31.40;15.35;;;;;;;13.70;45.26;101049.13;5023884;27;98161;-74
2024/03/05 01:14:18;;;;;;;24.42;15.25;;;;;;;13.62;45.42;101061.00;5019956;27;96965;-74
2024/03/05 01:16:45;;;;;;;29.48;15.90;;;;;;;13.39;45.77;101057.50;5027301;27;102362;-74
2024/03/05 01:19:12;;;;;;;28.73;15.27;;;;;;;13.48;46.37;101048.31;5027900;27;98907;-75
2024/03/05 01:21:41;;;;;;;29.80;15.35;;;;;;;13.54;46.31;101054.22;5025403;27;97935;-74
2024/03/05 01:24:09;;;;;;;27.60;15.43;;;;;;;13.69;45.69;101051.84;5022353;27;97287;-74
2024/03/05 01:26:36;;;;;;;28.20;15.07;;;;;;;13.56;46.38;101051.50;5023383;27;99325;-74
2024/03/05 01:29:02;;;;;;;26.40;16.23;;;;;;;13.52;45.84;101053.41;5022353;27;98850;-74
2024/03/05 01:31:29;;;;;;;31.83;15.60;;;;;;;13.60;45.63;101055.75;5025801;27;96873;-73
2024/03/05 01:33:55;;;;;;;30.55;15.18;;;;;;;13.33;46.00;101054.25;5025677;27;96776;-73
2024/03/05 01:36:22;;;;;;;26.70;15.60;;;;;;;13.43;45.80;101050.31;5017561;27;97694;-73
2024/03/05 01:38:48;;;;;;;30.48;15.05;;;;;;;13.42;45.66;101054.75;5017535;27;101616;-73
2024/03/05 01:41:16;;;;;;;28.58;14.80;;;;;;;13.34;46.07;101046.25;5025785;27;96889;-74
2024/03/05 01:43:43;;;;;;;28.83;15.10;;;;;;;13.49;46.00;101050.91;5027376;27;97180;-73
2024/03/05 01:46:14;;;;;;;27.05;15.60;;;;;;;13.34;46.31;101048.88;5019442;27;99584;-74
2024/03/05 01:48:43;;;;;;;29.10;15.38;;;;;;;13.28;46.22;101046.50;5023197;27;99909;-74
2024/03/05 01:51:11;;;;;;;31.35;15.35;;;;;;;13.53;45.77;101052.50;5023021;27;96800;-74
2024/03/05 01:53:39;;;;;;;29.10;15.20;;;;;;;13.52;46.09;101049.94;5028320;27;96994;-73
2024/03/05 01:56:07;;;;;;;30.00;15.23;;;;;;;13.64;45.88;101051.19;5022284;27;98353;-75
2024/03/05 01:58:35;;;;;;;29.35;14.20;;;;;;;13.74;46.01;101056.00;5029375;27;97999;-73
2024/03/05 02:01:06;;;;;;;26.10;15.55;;;;;;;13.68;45.34;101066.03;5024607;27;96804;-73
2024/03/05 02:03:33;;;;;;;28.08;15.48;;;;;;;13.66;45.30;101063.44;5021608;27;98374;-74
2024/03/05 02:06:02;;;;;;;27.27;15.30;;;;;;;13.53;45.50;101055.16;5027923;27;99334;-74
2024/03/05 02:08:28;;;;;;;29.55;15.73;;;;;;;13.64;45.45;101059.16;5030338;27;99078;-73
2024/03/05 02:10:55;;;;;;;29.42;15.65;;;;;;;13.43;45.90;101060.91;5029407;27;96924;-73
2024/03/05 02:13:22;;;;;;;29.77;15.55;;;;;;;13.25;46.58;101062.56;5026624;27;97352;-73
2024/03/05 02:15:50;;;;;;;29.23;15.55;;;;;;;13.16;46.39;101062.94;5026226;27;100076;-72
2024/03/05 02:18:16;;;;;;;36.78;15.73;;;;;;;13.24;46.48;101062.63;5029434;27;98785;-73
2024/03/05 02:20:43;;;;;;;30.13;15.98;;;;;;;13.17;46.59;101067.31;5027207;27;96946;-74
2024/03/05 02:23:11;;;;;;;27.98;16.02;;;;;;;13.11;46.81;101063.09;5026988;27;96797;-74
2024/03/05 02:25:37;;;;;;;30.27;15.70;;;;;;;13.13;47.28;101058.59;5023473;27;98559;-74
2024/03/05 02:28:05;;;;;;;31.10;16.10;;;;;;;13.10;47.00;101061.38;5028842;27;98759;-74
2024/03/05 02:30:32;;;;;;;30.95;16.30;;;;;;;13.03;47.18;101051.94;5025421;27;96827;-74
2024/03/05 02:32:59;;;;;;;32.95;15.85;;;;;;;13.15;47.41;101061.19;5028166;27;97580;-74
2024/03/05 02:35:26;;;;;;;30.83;16.17;;;;;;;13.06;47.32;101059.75;5024233;27;99410;-75
2024/03/05 02:37:52;;;;;;;30.02;16.17;;;;;;;12.96;47.49;101061.06;5022720;27;98823;-73
2024/03/05 02:40:20;;;;;;;32.60;17.40;;;;;;;12.90;47.80;101065.75;5030474;27;97612;-74
2024/03/05 02:42:47;;;;;;;30.00;16.38;;;;;;;12.76;48.17;101063.63;5029472;27;97125;-74
2024/03/05 02:45:15;;;;;;;34.30;16.77;;;;;;;12.85;47.97;101057.13;5027143;27;99333;-74
2024/03/05 02:47:42;;;;;;;31.38;16.08;;;;;;;13.03;47.55;101073.16;5028695;27;98942;-74
2024/03/05 02:50:10;;;;;;;31.83;16.15;;;;;;;12.80;48.07;101070.53;5030448;27;97922;-74
2024/03/05 02:52:36;;;;;;;33.00;15.90;;;;;;;12.91;48.11;101084.25;5033142;27;98243;-73
2024/03/05 02:55:04;;;;;;;31.75;16.40;;;;;;;12.68;48.00;101078.97;5024042;27;99259;-73
2024/03/05 02:57:31;;;;;;;33.40;16.98;;;;;;;12.50;48.93;101077.91;5018241;27;101409;-73
2024/03/05 02:59:58;;;;;;;29.40;16.33;;;;;;;12.49;49.17;101089.41;5022668;27;97035;-75
2024/03/05 03:02:24;;;;;;;35.55;16.63;;;;;;;12.42;49.22;101084.41;5029007;27;96887;-74
2024/03/05 03:04:53;;;;;;;30.25;16.35;;;;;;;12.52;49.46;101093.75;5024066;27;99663;-73
2024/03/05 03:07:19;;;;;;;32.00;16.58;;;;;;;12.30;49.88;101099.84;5023448;27;99111;-73
2024/03/05 03:09:46;;;;;;;31.83;15.70;;;;;;;12.40;50.30;101091.56;5031066;27;97226;-74
2024/03/05 03:12:13;;;;;;;28.20;15.02;;;;;;;12.31;50.17;101098.94;5018359;27;99036;-73
2024/03/05 03:14:43;;;;;;;33.35;15.27;;;;;;;12.06;50.35;101103.41;5020905;27;99194;-73
2024/03/05 03:17:09;;;;;;;31.73;16.75;;;;;;;12.11;50.50;101100.59;5025732;27;99935;-73
2024/03/05 03:19:36;;;;;;;32.38;15.98;;;;;;;12.01;50.74;101102.72;5027959;27;97126;-74
2024/03/05 03:22:02;;;;;;;32.63;15.75;;;;;;;11.86;51.54;101105.88;5025197;27;98450;-74
2024/03/05 03:24:29;;;;;;;34.17;16.92;;;;;;;12.08;50.88;101106.84;5023000;27;98939;-74
2024/03/05 03:26:55;;;;;;;33.25;15.95;;;;;;;12.03;51.03;101116.75;5021886;27;97605;-74
2024/03/05 03:29:22;;;;;;;30.33;15.82;;;;;;;12.19;50.73;101117.94;5023013;27;97123;-73
2024/03/05 03:31:49;;;;;;;30.50;15.75;;;;;;;12.05;51.42;101114.03;5023363;27;97362;-74
2024/03/05 03:34:16;;;;;;;33.15;16.15;;;;;;;12.12;51.22;101119.06;5021856;27;98850;-75
2024/03/05 03:36:43;;;;;;;30.50;15.98;;;;;;;11.85;51.80;101125.34;5024855;27;99215;-74
2024/03/05 03:39:11;;;;;;;34.67;16.05;;;;;;;12.21;51.12;101129.31;5025014;27;98787;-76
2024/03/05 03:41:38;;;;;;;29.65;15.98;;;;;;;11.95;51.62;101126.72;5027092;27;96819;-74
2024/03/05 03:44:05;;;;;;;25.35;14.65;;;;;;;12.06;51.51;101124.59;5024700;27;99220;-75
2024/03/05 03:46:31;;;;;;;34.40;15.88;;;;;;;11.72;52.45;101116.06;5011032;27;102584;-75
2024/03/05 03:48:59;;;;;;;28.70;16.92;;;;;;;11.59;52.47;101131.50;5029624;27;97301;-75
2024/03/05 03:51:25;;;;;;;32.88;15.75;;;;;;;11.90;52.27;101129.56;5027069;27;96902;-75
2024/03/05 03:53:52;;;;;;;28.48;14.90;;;;;;;11.86;52.19;101124.44;5028484;27;98915;-74
2024/03/05 03:56:18;;;;;;;29.10;14.98;;;;;;;11.69;52.61;101124.09;5028439;27;98759;-73
2024/03/05 03:58:44;;;;;;;29.10;15.23;;;;;;;11.92;52.04;101130.38;5026196;27;97658;-74
2024/03/05 04:01:11;;;;;;;31.20;14.50;;;;;;;11.79;52.46;101125.56;5023138;27;97207;-67
2024/03/05 04:03:39;;;;;;;31.70;15.60;;;;;;;12.02;51.58;101133.53;5023584;27;99374;-67
2024/03/05 04:06:07;;;;;;;34.25;15.50;;;;;;;12.19;51.13;101127.66;5029540;27;99278;-68
2024/03/05 04:08:34;;;;;;;27.40;15.18;;;;;;;12.26;51.12;101132.69;5030918;27;97422;-68
2024/03/05 04:11:00;;;;;;;31.70;14.88;;;;;;;12.03;51.61;101140.59;5020871;27;98631;-68
2024/03/05 04:13:27;;;;;;;28.05;15.50;;;;;;;12.04;51.34;101138.81;5029465;27;99209;-67
2024/03/05 04:15:53;;;;;;;29.67;15.60;;;;;;;11.89;51.70;101148.13;5024394;27;99314;-67
2024/03/05 04:18:21;;;;;;;36.25;15.23;;;;;;;11.97;51.19;101151.38;5025189;27;96854;-67
2024/03/05 04:20:50;;;;;;;33.28;15.23;;;;;;;11.83;51.87;101161.59;5027059;27;96831;-68
2024/03/05 04:23:19;;;;;;;32.28;15.30;;;;;;;11.73;52.04;101152.22;5019859;27;99170;-68
2024/03/05 04:25:47;;;;;;;31.52;15.38;;;;;;;11.57;52.33;101152.72;5021044;27;99505;-67
2024/03/05 04:28:13;;;;;;;31.33;14.90;;;;;;;11.34;52.81;101151.75;5030346;27;97283;-68
2024/03/05 04:30:41;;;;;;;33.50;14.23;;;;;;;11.05;53.75;101150.88;5021324;27;97364;-67
2024/03/05 04:33:09;;;;;;;31.75;14.75;;;;;;;11.46;53.26;101148.69;5023180;27;98146;-67
2024/03/05 04:35:35;;;;;;;29.50;14.15;;;;;;;11.51;52.78;101155.56;5027217;27;102471;-67
2024/03/05 04:38:02;;;;;;;33.08;15.32;;;;;;;11.46;52.74;101153.97;5026854;27;96773;-67
2024/03/05 04:40:30;;;;;;;30.10;14.60;;;;;;;11.39;53.17;101158.59;5021270;27;96797;-67
2024/03/05 04:42:56;;;;;;;29.05;15.95;;;;;;;11.22;53.53;101165.38;5021076;27;97749;-67
2024/03/05 04:45:23;;;;;;;23.33;13.80;;;;;;;11.35;53.47;101166.72;5021105;27;99477;-67
2024/03/05 04:47:50;;;;;;;30.63;15.30;;;;;;;11.12;53.47;101170.06;5025301;27;98237;-67
2024/03/05 04:50:17;;;;;;;32.80;14.55;;;;;;;11.23;53.01;101170.56;5024551;27;97242;-67
2024/03/05 04:52:43;;;;;;;32.00;14.73;;;;;;;11.08;53.75;101179.00;5025909;27;99158;-69
2024/03/05 04:55:10;;;;;;;29.23;14.45;;;;;;;10.99;53.82;101176.63;5025987;27;97653;-66
2024/03/05 04:57:37;;;;;;;29.52;14.15;;;;;;;11.05;54.51;101179.97;5021334;27;97037;-67
2024/03/05 05:00:11;;;;;;;27.75;13.75;;;;;;;11.12;53.55;101178.84;5027348;27;96949;-68
2024/03/05 05:02:38;;;;;;;29.73;13.48;;;;;;;10.90;53.74;101184.84;5025240;27;99291;-68
2024/03/05 05:05:05;;;;;;;27.58;13.85;;;;;;;11.04;53.73;101185.28;5021769;27;98821;-67
2024/03/05 05:07:31;;;;;;;23.30;13.23;;;;;;;11.05;53.78;101187.88;5024386;27;97302;-67
2024/03/05 05:09:58;;;;;;;37.70;14.13;;;;;;;11.06;53.66;101186.13;5021738;27;97430;-67
2024/03/05 05:12:24;;;;;;;28.30;13.88;;;;;;;11.03;53.55;101191.47;5017937;27;101581;-67
2024/03/05 05:14:52;;;;;;;28.85;15.57;;;;;;;11.09;53.23;101183.41;5022506;27;98900;-67
2024/03/05 05:17:18;;;;;;;33.72;15.07;;;;;;;10.83;54.11;101183.31;5021407;27;96792;-67
2024/03/05 05:19:45;;;;;;;30.05;13.40;;;;;;;10.56;55.03;101180.56;5021510;27;98452;-67
2024/03/05 05:22:11;;;;;;;31.25;13.65;;;;;;;10.65;54.89;101182.06;5022746;27;97722;-66
2024/03/05 05:24:38;;;;;;;26.65;13.95;;;;;;;10.71;54.57;101182.72;5023157;27;101097;-66
2024/03/05 05:27:05;;;;;;;25.92;14.25;;;;;;;10.78;54.86;101178.13;5020356;27;98378;-66
2024/03/05 05:29:31;;;;;;;23.95;13.07;;;;;;;10.82;54.53;101187.72;5021924;27;97047;-66
2024/03/05 05:32:01;;;;;;;29.55;14.10;;;;;;;10.73;54.77;101188.00;5024674;27;98435;-66
2024/03/05 05:34:27;;;;;;;28.02;14.20;;;;;;;10.83;54.45;101184.16;5026160;27;99743;-66
2024/03/05 05:36:54;;;;;;;25.85;14.63;;;;;;;10.52;55.18;101184.19;5025651;27;96741;-66
2024/03/05 05:39:24;;;;;;;29.38;13.52;;;;;;;10.59;54.97;101191.03;5022574;27;97169;-66
2024/03/05 05:41:50;;;;;;;34.83;14.30;;;;;;;10.42;55.34;101188.00;5023900;27;102313;-67
2024/03/05 05:44:18;;;;;;;24.40;13.45;;;;;;;10.39;55.83;101193.34;5027859;27;98823;-67
2024/03/05 05:46:45;;;;;;;33.05;14.07;;;;;;;10.50;55.52;101193.91;5023461;27;100131;-67
2024/03/05 05:49:14;;;;;;;30.20;14.10;;;;;;;10.26;55.90;101202.53;5028323;27;96927;-66
2024/03/05 05:51:40;;;;;;;32.20;13.95;;;;;;;10.18;55.89;101202.72;5029305;27;98896;-66
2024/03/05 05:54:10;;;;;;;31.42;13.73;;;;;;;10.33;56.01;101204.09;5024477;27;98174;-67
2024/03/05 05:56:36;;;;;;;30.67;14.48;;;;;;;10.21;56.39;101205.28;5022906;27;97219;-66
2024/03/05 05:59:05;;;;;;;28.85;14.65;;;;;;;10.30;56.03;101205.06;5027254;27;96923;-66
2024/03/05 06:01:33;;;;;;;28.95;13.80;;;;;;;10.43;55.60;101210.00;5030223;27;98894;-68
2024/03/05 06:04:00;;;;;;;30.08;14.38;;;;;;;10.30;55.56;101210.34;5026391;27;99093;-68
2024/03/05 06:06:27;;;;;;;26.63;14.25;;;;;;;10.34;55.63;101216.41;5027564;27;96849;-68
2024/03/05 06:08:54;;;;;;;31.23;13.85;;;;;;;10.35;55.36;101220.78;5015133;27;103042;-68
2024/03/05 06:11:23;;;;;;;27.20;14.10;;;;;;;10.31;55.74;101221.75;5022937;27;102303;-67
2024/03/05 06:13:49;;;;;;;29.92;14.10;;;;;;;10.04;56.27;101222.47;5021475;27;99194;-69
2024/03/05 06:16:16;;;;;;;25.95;14.07;;;;;;;10.43;55.83;101225.84;5022963;27;97253;-68
2024/03/05 06:18:43;;;;;;;29.27;14.63;;;;;;;10.36;55.44;101226.03;5024264;27;96871;-67
2024/03/05 06:21:11;;;;;;;26.73;14.10;;;;;;;10.44;54.99;101225.78;5026963;27;99238;-69
2024/03/05 06:23:39;;;;;;;29.42;13.38;;;;;;;10.08;55.77;101219.69;5018659;27;101013;-68
2024/03/05 06:26:07;;;;;;;29.55;13.48;;;;;;;10.33;55.68;101226.09;5016625;27;97304;-67
2024/03/05 06:28:33;;;;;;;32.28;14.23;;;;;;;10.26;55.50;101228.94;5019043;27;97821;-67
2024/03/05 06:30:59;;;;;;;42.78;14.80;;;;;;;10.58;54.94;101225.41;5023643;27;102065;-67
2024/03/05 06:33:26;;;;;;;29.73;13.88;;;;;;;10.43;54.98;101225.84;5024220;27;99126;-68
2024/03/05 06:35:52;;;;;;;31.20;14.40;;;;;;;10.29;55.31;101223.59;5029315;27;98290;-69
2024/03/05 06:38:19;;;;;;;27.73;14.15;;;;;;;10.33;55.40;101233.16;5027217;27;96925;-68
2024/03/05 06:40:47;;;;;;;35.08;13.80;;;;;;;10.51;54.66;101240.56;5030320;27;99507;-69
2024/03/05 06:43:13;;;;;;;26.48;14.48;;;;;;;10.39;55.09;101235.63;5020758;27;98486;-68
2024/03/05 06:45:42;;;;;;;31.92;14.30;;;;;;;10.57;55.21;101250.09;5026368;27;97189;-69
2024/03/05 06:48:12;;;;;;;32.70;13.55;;;;;;;10.59;54.60;101241.22;5025992;27;97019;-69
2024/03/05 06:50:39;;;;;;;28.48;13.07;;;;;;;10.67;54.54;101241.03;5029288;27;100256;-69
2024/03/05 06:58:37;;;;;;;31.35;14.05;;;;;;;10.51;54.43;101248.50;5025955;27;97454;-68
2024/03/05 07:01:07;;;;;;;30.33;13.88;;;;;;;10.52;54.26;101257.28;5023754;27;98864;-68
2024/03/05 07:03:34;;;;;;;24.77;12.30;;;;;;;10.56;54.03;101249.25;5027491;27;98212;-68
2024/03/05 07:06:07;;;;;;;24.50;13.60;;;;;;;10.45;54.37;101256.59;5004258;27;98693;-68
2024/03/05 07:08:34;;;;;;;29.38;12.95;;;;;;;10.46;54.57;101247.75;5007833;27;97993;-68
2024/03/05 07:11:05;;;;;;;33.88;14.40;;;;;;;10.27;54.83;101250.03;5012633;27;98893;-68
2024/03/05 07:13:32;;;;;;;25.50;12.35;;;;;;;10.59;54.72;101254.44;5010537;27;98895;-69
2024/03/05 07:15:58;;;;;;;26.98;13.43;;;;;;;10.36;54.45;101249.81;5014628;27;98250;-69
2024/03/05 07:18:25;;;;;;;28.77;14.27;;;;;;;10.48;54.37;101253.00;5017619;27;97225;-69
2024/03/05 07:20:52;;;;;;;27.38;14.02;;;;;;;10.60;54.04;101255.31;5018904;27;100221;-69
2024/03/05 07:23:20;;;;;;;21.17;12.10;;;;;;;10.58;53.98;101257.13;5027157;27;100624;-68
2024/03/05 07:25:46;;;;;;;31.23;12.50;;;;;;;10.73;53.60;101257.56;5018511;27;98603;-69
2024/03/05 07:28:14;;;;;;;24.90;12.80;;;;;;;10.72;53.35;101258.47;5019481;27;98924;-68
2024/03/05 07:30:42;;;;;;;34.85;12.45;;;;;;;10.86;52.55;101258.09;5021488;27;102060;-68
2024/03/05 07:33:09;;;;;;;27.60;13.02;;;;;;;10.96;52.94;101258.72;5023295;27;99106;-68
2024/03/05 07:35:36;;;;;;;28.10;13.00;;;;;;;10.75;53.16;101250.47;5018577;27;99024;-68
2024/03/05 07:38:03;;;;;;;24.50;12.15;;;;;;;11.11;52.31;101255.59;5016920;27;97369;-68
2024/03/05 07:40:30;;;;;;;24.92;12.48;;;;;;;11.02;52.13;101258.53;5023386;27;100492;-68
2024/03/05 07:42:56;;;;;;;24.73;12.70;;;;;;;11.17;52.05;101260.69;5018661;27;100934;-69
2024/03/05 07:45:24;;;;;;;26.17;13.02;;;;;;;11.11;52.08;101263.53;5019541;27;97003;-69
2024/03/05 07:47:51;;;;;;;26.70;13.77;;;;;;;11.09;52.06;101254.81;5020197;27;97076;-68
2024/03/05 07:50:17;;;;;;;31.33;12.88;;;;;;;11.33;51.62;101264.63;5020520;27;99131;-68
2024/03/05 07:52:46;;;;;;;24.80;13.38;;;;;;;11.62;50.81;101266.38;5020630;27;98704;-69
2024/03/05 07:55:16;;;;;;;34.20;12.43;;;;;;;11.77;50.46;101265.91;5017281;27;97065;-69
2024/03/05 07:57:43;;;;;;;26.75;13.60;;;;;;;11.77;50.03;101265.06;5017948;27;97529;-68
2024/03/05 08:00:13;;;;;;;26.55;12.57;;;;;;;11.59;50.08;101269.13;5025938;27;99281;-69
2024/03/05 08:02:42;;;;;;;24.67;13.35;;;;;;;11.58;50.49;101270.91;5027622;27;100701;-68
2024/03/05 08:05:10;;;;;;;30.92;13.10;;;;;;;11.67;50.52;101268.88;5018229;27;97240;-68
2024/03/05 08:07:37;;;;;;;31.73;13.27;;;;;;;12.04;49.98;101261.50;5020819;27;97342;-69
2024/03/05 08:10:07;;;;;;;23.50;12.27;;;;;;;12.05;49.07;101260.59;5022988;27;99782;-69
2024/03/05 08:12:35;;;;;;;30.42;12.93;;;;;;;12.33;48.57;101255.22;5024402;27;100955;-68
2024/03/05 08:15:01;;;;;;;25.42;13.00;;;;;;;12.18;48.52;101256.63;5013408;27;97956;-68
2024/03/05 08:17:27;;;;;;;27.42;12.63;;;;;;;12.48;48.30;101254.69;5021437;27;96876;-69
2024/03/05 08:19:55;;;;;;;33.63;12.63;;;;;;;12.50;47.77;101257.28;5023657;27;98938;-69
2024/03/05 08:22:22;;;;;;;31.80;12.43;;;;;;;12.47;47.49;101257.41;5020131;27;100012;-68
2024/03/05 08:24:49;;;;;;;24.30;13.00;;;;;;;12.28;48.52;101262.44;5024334;27;97120;-69
2024/03/05 08:27:16;;;;;;;24.42;12.23;;;;;;;12.18;48.20;101256.63;5020572;27;97147;-68
2024/03/05 08:29:42;;;;;;;28.27;12.77;;;;;;;11.96;49.01;101260.88;5024999;27;99030;-68
2024/03/05 08:32:09;;;;;;;27.05;12.57;;;;;;;12.23;48.67;101265.28;5021057;27;102259;-68
2024/03/05 08:34:36;;;;;;;24.23;12.48;;;;;;;12.28;48.50;101263.31;5020960;27;96881;-69
2024/03/05 08:37:04;;;;;;;24.60;12.52;;;;;;;11.96;49.20;101267.06;5018807;27;97364;-69
2024/03/05 08:39:30;;;;;;;25.88;13.38;;;;;;;12.18;48.87;101266.34;5023878;27;99304;-69
2024/03/05 08:41:58;;;;;;;26.40;13.45;;;;;;;12.53;48.48;101257.19;5024550;27;99070;-68
2024/03/05 08:44:25;;;;;;;34.10;14.45;;;;;;;12.50;48.24;101257.28;5025026;27;97354;-68
2024/03/05 08:46:52;;;;;;;23.63;12.07;;;;;;;12.47;47.98;101260.88;5020274;27;97629;-69
2024/03/05 08:49:18;;;;;;;34.97;13.88;;;;;;;12.58;47.50;101260.53;5025502;27;99615;-68
2024/03/05 08:51:45;;;;;;;30.10;14.02;;;;;;;12.65;47.96;101259.41;5023795;27;101530;-69
2024/03/05 08:54:13;;;;;;;37.47;13.02;;;;;;;12.81;46.96;101257.91;5024380;27;97297;-68
2024/03/05 08:56:40;;;;;;;23.02;12.63;;;;;;;13.20;45.99;101262.66;5021372;27;98722;-69
2024/03/05 08:59:07;;;;;;;30.10;12.85;;;;;;;13.66;45.35;101259.09;5019982;27;99653;-69
2024/03/05 09:01:34;;;;;;;27.00;13.32;;;;;;;13.89;44.68;101259.03;5021547;27;99730;-69
2024/03/05 09:04:01;;;;;;;24.13;12.93;;;;;;;14.31;43.47;101262.53;5020349;27;96774;-68
2024/03/05 09:06:28;;;;;;;21.65;13.05;;;;;;;13.79;43.59;101263.84;5020309;27;96840;-69
2024/03/05 09:08:54;;;;;;;29.08;13.40;;;;;;;14.00;43.14;101266.56;5026659;27;101818;-69
2024/03/05 09:11:22;;;;;;;33.35;13.57;;;;;;;14.03;44.17;101269.09;5023294;27;99016;-68
2024/03/05 09:13:48;;;;;;;28.02;13.23;;;;;;;14.26;42.79;101271.66;5016913;27;96776;-68
2024/03/05 09:16:14;;;;;;;23.80;13.00;;;;;;;14.30;42.99;101265.28;5024608;27;97177;-68
2024/03/05 09:18:41;;;;;;;25.40;13.00;;;;;;;14.22;42.86;101270.94;5026878;27;97703;-69
2024/03/05 09:21:09;;;;;;;28.23;12.80;;;;;;;14.40;42.42;101277.28;5016989;27;98720;-70
2024/03/05 09:23:36;;;;;;;29.60;12.75;;;;;;;14.00;43.32;101271.88;5021366;27;97853;-69
2024/03/05 09:26:04;;;;;;;20.75;12.10;;;;;;;14.16;42.76;101279.16;5019468;27;97261;-69
2024/03/05 09:28:32;;;;;;;26.83;11.90;;;;;;;13.60;43.88;101275.25;5018254;27;99830;-69
2024/03/05 09:30:58;;;;;;;24.83;12.45;;;;;;;13.50;44.32;101278.31;5023468;27;99235;-69
2024/03/05 09:33:26;;;;;;;25.25;12.38;;;;;;;13.19;44.75;101272.44;5030184;27;97771;-68
2024/03/05 09:35:53;;;;;;;22.23;11.85;;;;;;;13.26;45.17;101273.09;5031511;27;97112;-70
2024/03/05 09:38:19;;;;;;;24.80;11.45;;;;;;;13.70;44.35;101276.66;5029734;27;97629;-70
2024/03/05 09:40:47;;;;;;;18.90;11.38;;;;;;;13.62;43.94;101284.91;5019895;27;101428;-69
2024/03/05 09:43:14;;;;;;;35.50;11.18;;;;;;;13.49;44.02;101287.19;5025778;27;96964;-70
2024/03/05 09:45:47;;;;;;;21.08;11.02;;;;;;;13.47;44.18;101286.38;5024620;27;96963;-69
2024/03/05 09:48:17;;;;;;;21.73;11.73;;;;;;;13.47;44.49;101288.16;5023182;27;102336;-69
2024/03/05 09:50:44;;;;;;;23.50;10.75;;;;;;;13.57;44.07;101284.25;5023352;27;98787;-69
2024/03/05 09:53:12;;;;;;;24.13;11.82;;;;;;;13.58;44.38;101285.97;5025721;27;98123;-69
2024/03/05 09:55:38;;;;;;;25.45;11.73;;;;;;;13.22;44.82;101282.06;5022275;27;99275;-69
2024/03/05 09:58:10;;;;;;;23.48;10.85;;;;;;;13.07;45.08;101286.97;5025411;27;97897;-70
2024/03/05 10:00:38;;;;;;;23.58;10.70;;;;;;;12.89;45.45;101292.97;5025045;27;98713;-69
2024/03/05 10:03:07;;;;;;;28.75;11.40;;;;;;;12.80;46.02;101290.63;5024130;27;98683;-69
2024/03/05 10:05:33;;;;;;;23.00;10.95;;;;;;;12.79;46.08;101286.28;5019682;27;96791;-68
2024/03/05 10:07:59;;;;;;;29.52;11.40;;;;;;;12.75;46.50;101284.66;5019984;27;99021;-68
2024/03/05 10:10:31;;;;;;;18.60;10.57;;;;;;;12.87;46.07;101296.59;5024004;27;99090;-69
2024/03/05 10:12:58;;;;;;;22.45;11.38;;;;;;;12.91;45.94;101300.88;5024571;27;100192;-69
2024/03/05 10:15:25;;;;;;;24.85;11.98;;;;;;;13.16;45.79;101297.31;5023689;27;96962;-69
2024/03/05 10:17:53;;;;;;;30.58;12.57;;;;;;;12.88;46.32;101291.25;5022336;27;102490;-69
2024/03/05 10:20:29;;;;;;;25.60;11.93;;;;;;;12.72;46.78;101295.38;5022531;27;98829;-69
2024/03/05 10:22:57;;;;;;;28.42;12.52;;;;;;;12.66;46.60;101291.16;5017248;27;96865;-69
2024/03/05 10:25:24;;;;;;;22.02;10.75;;;;;;;12.90;46.73;101297.38;5023981;27;98576;-70
2024/03/05 10:27:51;;;;;;;25.10;11.80;;;;;;;13.26;45.90;101296.97;5024516;27;99351;-77
2024/03/05 10:30:23;;;;;;;26.90;12.68;;;;;;;13.49;45.03;101295.16;5020733;27;99271;-77
2024/03/05 10:32:54;;;;;;;26.48;11.60;;;;;;;14.06;43.83;101288.44;5020587;27;97333;-77
2024/03/05 10:35:20;;;;;;;25.75;11.90;;;;;;;14.22;43.06;101284.22;5027664;27;97334;-76
2024/03/05 10:37:57;;;;;;;25.45;11.00;;;;;;;14.61;42.30;101287.00;5026245;27;98886;-76
2024/03/05 10:40:24;;;;;;;29.63;10.45;;;;;;;14.71;40.70;101287.44;5024707;27;98900;-75
2024/03/05 10:42:52;;;;;;;22.42;10.52;;;;;;;14.62;40.78;101280.75;5020659;27;97023;-76
2024/03/05 10:45:22;;;;;;;20.45;9.55;;;;;;;14.27;40.69;101289.31;5018424;27;97342;-75
2024/03/05 10:47:51;;;;;;;19.70;10.38;;;;;;;14.52;40.85;101286.50;5025777;27;99090;-68
2024/03/05 10:50:19;;;;;;;23.48;10.55;;;;;;;14.73;40.43;101288.25;5021439;27;98994;-69
2024/03/05 10:52:47;;;;;;;26.02;9.50;;;;;;;14.47;40.12;101270.78;5024316;27;96858;-68
2024/03/05 10:55:17;;;;;;;27.52;9.32;;;;;;;14.09;40.24;101279.47;5025699;27;97340;-68
2024/03/05 11:00:25;;;;;;;26.20;8.60;;;;;;;13.62;40.57;101289.34;5029124;27;98723;-68
2024/03/05 11:02:53;;;;;;;19.58;7.85;;;;;;;13.52;41.10;101286.22;5019149;27;98191;-68
2024/03/05 11:05:21;;;;;;;22.15;10.32;;;;;;;13.41;41.31;101286.63;5025749;27;96880;-68
2024/03/05 11:07:48;;;;;;;15.68;7.65;;;;;;;13.36;41.43;101293.03;5017079;27;98185;-68
2024/03/05 11:10:16;;;;;;;21.38;8.63;;;;;;;13.60;41.70;101292.06;5020408;27;98900;-68
2024/03/05 11:12:43;;;;;;;19.23;7.70;;;;;;;13.50;41.96;101288.94;5017550;27;97130;-69
2024/03/05 11:15:13;;;;;;;27.98;7.80;;;;;;;13.30;41.90;101287.97;5024142;27;96890;-68
2024/03/05 11:17:42;;;;;;;19.52;7.35;;;;;;;13.36;40.96;101283.28;5024915;27;99215;-69